Time;durP1;ratioP1;P1;durP2;ratioP2;P2;SDS_P1;SDS_P2;PMS_P1;PMS_P2;Temp;Humidity;BMP_temperature;BMP_pressure;BME280_temperature;BME280_humidity;BME280_pressure;Samples;Min_cycle;Max_cycle;Signal;HPM_P1;HPM_P2
2022/04/24 00:00:21;;;;;;;5.60;4.55;;;;;;;13.33;39.04;98740.19;5092728;28;20443;-59
2022/04/24 00:02:48;;;;;;;8.27;4.53;;;;;;;13.29;39.21;98747.53;5092151;28;20446;-59
2022/04/24 00:05:15;;;;;;;6.75;4.47;;;;;;;13.24;39.31;98745.28;5092062;28;20139;-62
2022/04/24 00:07:41;;;;;;;5.63;5.05;;;;;;;13.21;39.42;98742.06;5092000;28;20055;-59
2022/04/24 00:10:10;;;;;;;5.70;4.55;;;;;;;13.18;39.57;98734.38;5091991;28;20052;-61
2022/04/24 00:12:37;;;;;;;7.85;5.10;;;;;;;13.15;39.65;98741.63;5092031;28;20492;-60
2022/04/24 00:15:04;;;;;;;4.70;4.28;;;;;;;13.12;39.38;98741.06;5092183;28;20059;-60
2022/04/24 00:17:30;;;;;;;6.22;4.40;;;;;;;13.08;39.80;98729.88;5092186;28;20059;-59
2022/04/24 00:19:57;;;;;;;6.47;4.72;;;;;;;13.03;40.00;98730.28;5091996;28;20048;-60
2022/04/24 00:22:24;;;;;;;6.00;4.38;;;;;;;13.02;39.96;98738.34;5091908;28;20056;-60
2022/04/24 00:24:50;;;;;;;5.53;4.47;;;;;;;12.99;40.12;98733.31;5091777;28;20044;-59
2022/04/24 00:27:17;;;;;;;5.15;4.30;;;;;;;12.95;40.20;98732.72;5091607;28;20408;-58
2022/04/24 00:29:43;;;;;;;5.35;4.85;;;;;;;12.94;40.28;98732.84;5091650;28;20455;-61
2022/04/24 00:32:10;;;;;;;6.85;4.70;;;;;;;12.90;40.56;98733.09;5091725;28;20105;-60
2022/04/24 00:34:36;;;;;;;9.18;4.72;;;;;;;12.88;40.80;98739.47;5091764;28;20094;-59
2022/04/24 00:37:04;;;;;;;7.30;4.68;;;;;;;12.84;40.81;98728.34;5091607;28;20534;-61
2022/04/24 00:39:31;;;;;;;6.20;4.70;;;;;;;12.81;40.92;98727.75;5091293;28;20052;-59
2022/04/24 00:41:57;;;;;;;6.00;4.88;;;;;;;12.78;40.86;98720.91;5091516;28;20056;-59
2022/04/24 00:44:24;;;;;;;4.95;4.35;;;;;;;12.73;41.00;98716.03;5091823;28;20052;-60
2022/04/24 00:47:02;;;;;;;5.03;4.20;;;;;;;12.66;41.74;98719.28;5091438;28;20496;-60
2022/04/24 00:49:29;;;;;;;5.25;4.45;;;;;;;12.65;41.06;98713.19;5091468;28;20113;-59
2022/04/24 00:51:56;;;;;;;4.57;4.18;;;;;;;12.60;41.33;98715.38;5091040;28;20516;-60
2022/04/24 00:54:23;;;;;;;8.43;4.32;;;;;;;12.57;41.42;98716.47;5091121;28;20044;-58
2022/04/24 00:56:49;;;;;;;5.15;4.45;;;;;;;12.55;41.69;98717.53;5091213;28;20069;-59
2022/04/24 00:59:17;;;;;;;5.32;4.70;;;;;;;12.51;41.97;98714.31;5091082;28;20059;-61
2022/04/24 01:01:44;;;;;;;6.15;4.57;;;;;;;12.50;41.62;98710.00;5091283;28;20290;-59
2022/04/24 01:04:12;;;;;;;10.85;4.60;;;;;;;12.49;41.81;98711.78;5090264;28;20492;-60
2022/04/24 01:06:41;;;;;;;6.60;4.22;;;;;;;12.46;41.79;98698.88;5091267;28;20043;-60
2022/04/24 01:09:22;;;;;;;4.80;4.07;;;;;;;12.41;42.52;98702.84;5089724;28;20051;-59
2022/04/24 01:11:50;;;;;;;7.88;4.35;;;;;;;12.42;41.94;98699.25;5091298;28;20561;-60
2022/04/24 01:14:18;;;;;;;5.68;4.00;;;;;;;12.40;41.90;98701.19;5091010;28;20462;-60
2022/04/24 01:16:46;;;;;;;5.30;4.25;;;;;;;12.37;42.18;98705.72;5089795;28;20052;-59
2022/04/24 01:19:13;;;;;;;10.35;3.92;;;;;;;12.33;41.94;98704.31;5090724;28;20056;-60
2022/04/24 01:21:44;;;;;;;4.65;4.15;;;;;;;12.29;42.65;98708.16;5089476;28;20052;-59
2022/04/24 01:24:13;;;;;;;4.53;4.00;;;;;;;12.27;42.23;98709.25;5089509;28;20048;-60
2022/04/24 01:26:39;;;;;;;6.55;4.10;;;;;;;12.23;42.17;98709.47;5091090;28;20052;-59
2022/04/24 01:29:06;;;;;;;4.93;4.05;;;;;;;12.19;42.20;98702.78;5090671;28;20052;-64
2022/04/24 01:31:33;;;;;;;5.47;3.90;;;;;;;12.15;42.22;98713.72;5090816;28;20044;-63
2022/04/24 01:34:00;;;;;;;5.93;3.80;;;;;;;12.11;42.44;98706.03;5091006;28;20051;-59
2022/04/24 01:36:27;;;;;;;5.68;3.78;;;;;;;12.08;42.37;98706.28;5090935;28;20056;-61
2022/04/24 01:38:53;;;;;;;6.45;4.00;;;;;;;12.07;42.38;98714.34;5090654;28;20051;-60
2022/04/24 01:41:20;;;;;;;6.60;3.75;;;;;;;12.05;42.47;98708.31;5090434;28;20074;-59
2022/04/24 01:43:48;;;;;;;4.60;3.72;;;;;;;12.03;42.56;98712.88;5090618;28;20492;-59
2022/04/24 01:46:14;;;;;;;5.35;4.25;;;;;;;12.01;42.47;98709.50;5089488;28;20612;-59
2022/04/24 01:48:41;;;;;;;4.00;3.55;;;;;;;11.99;42.50;98714.91;5090643;28;20565;-60
2022/04/24 01:51:09;;;;;;;4.50;3.80;;;;;;;11.97;42.65;98714.19;5092132;28;20048;-59
2022/04/24 01:53:36;;;;;;;6.03;3.85;;;;;;;11.95;42.57;98716.09;5094620;28;20113;-59
2022/04/24 01:56:05;;;;;;;4.18;3.78;;;;;;;11.91;42.88;98719.94;5093539;28;20047;-59
2022/04/24 01:58:32;;;;;;;6.03;3.47;;;;;;;11.89;42.82;98721.88;5094503;28;20477;-59
2022/04/24 02:00:59;;;;;;;3.83;3.25;;;;;;;11.85;42.75;98722.13;5094589;28;20787;-59
2022/04/24 02:03:27;;;;;;;4.85;3.58;;;;;;;11.83;42.86;98713.50;5094967;28;20056;-60
2022/04/24 02:05:54;;;;;;;5.45;3.33;;;;;;;11.80;42.71;98716.38;5094513;28;20044;-60
2022/04/24 02:08:21;;;;;;;4.60;3.03;;;;;;;11.76;42.71;98711.44;5094449;28;20458;-59
2022/04/24 02:10:48;;;;;;;3.72;2.95;;;;;;;11.73;42.67;98712.53;5094685;28;20393;-60
2022/04/24 02:13:14;;;;;;;5.07;3.33;;;;;;;11.69;42.78;98711.09;5094220;28;20044;-60
2022/04/24 02:15:41;;;;;;;6.13;3.38;;;;;;;11.66;42.80;98706.09;5094742;28;20052;-60
2022/04/24 02:18:08;;;;;;;4.40;3.33;;;;;;;11.63;42.90;98703.69;5094332;28;20462;-59
2022/04/24 02:20:35;;;;;;;3.65;3.17;;;;;;;11.59;42.97;98698.66;5094308;28;20078;-59
2022/04/24 02:23:02;;;;;;;4.00;3.33;;;;;;;11.57;42.81;98708.47;5094207;28;20122;-60
2022/04/24 02:25:30;;;;;;;5.00;3.50;;;;;;;11.56;43.03;98711.22;5094114;28;20043;-59
2022/04/24 02:27:57;;;;;;;7.07;3.10;;;;;;;11.53;43.02;98701.78;5092874;28;20554;-60
2022/04/24 02:30:27;;;;;;;5.68;3.50;;;;;;;11.52;43.04;98705.38;5093971;28;20049;-59
2022/04/24 02:32:57;;;;;;;4.43;3.03;;;;;;;11.49;43.47;98696.84;5094203;28;20048;-59
2022/04/24 02:35:24;;;;;;;3.75;3.03;;;;;;;11.47;42.95;98691.69;5092999;28;20093;-60
2022/04/24 02:37:51;;;;;;;4.30;2.92;;;;;;;11.45;43.00;98691.00;5094082;28;20055;-60
2022/04/24 02:40:27;;;;;;;6.57;3.35;;;;;;;11.43;43.17;98692.88;5093786;28;20093;-60
2022/04/24 02:42:54;;;;;;;4.90;3.13;;;;;;;11.41;43.03;98689.56;5094231;28;20051;-61
2022/04/24 02:45:21;;;;;;;3.75;3.30;;;;;;;11.38;43.33;98687.16;5093877;28;20048;-60
2022/04/24 02:47:48;;;;;;;4.90;2.92;;;;;;;11.36;43.28;98695.16;5093767;28;20184;-59
2022/04/24 02:50:15;;;;;;;4.30;3.25;;;;;;;11.34;43.20;98690.00;5093381;28;20048;-59
2022/04/24 02:52:52;;;;;;;5.53;3.72;;;;;;;11.29;43.82;98689.53;5093710;28;20048;-59
2022/04/24 02:55:20;;;;;;;4.57;2.92;;;;;;;11.29;43.30;98691.34;5093631;28;20062;-61
2022/04/24 02:57:47;;;;;;;5.15;3.20;;;;;;;11.27;43.31;98696.72;5093438;28;20109;-62
2022/04/24 03:00:24;;;;;;;3.47;3.17;;;;;;;11.25;43.45;98689.91;5093192;28;20048;-59
2022/04/24 03:02:52;;;;;;;2.97;2.67;;;;;;;11.24;43.28;98690.84;5093435;28;20048;-60
2022/04/24 03:05:21;;;;;;;4.85;2.97;;;;;;;11.20;43.47;98696.38;5092113;28;20075;-60
2022/04/24 03:07:48;;;;;;;4.60;3.28;;;;;;;11.18;43.42;98695.63;5093595;28;20385;-59
2022/04/24 03:10:16;;;;;;;4.95;3.35;;;;;;;11.16;43.41;98699.34;5093362;28;20135;-61
2022/04/24 03:12:44;;;;;;;4.32;3.25;;;;;;;11.12;43.27;98695.25;5093418;28;20113;-61
2022/04/24 03:15:12;;;;;;;3.55;3.20;;;;;;;11.08;43.59;98699.94;5093209;28;20040;-59
2022/04/24 03:17:39;;;;;;;4.13;3.20;;;;;;;11.06;43.54;98699.19;5093224;28;20059;-60
2022/04/24 03:20:08;;;;;;;3.30;2.85;;;;;;;11.03;43.65;98697.63;5091764;28;20063;-60
2022/04/24 03:22:34;;;;;;;3.10;2.80;;;;;;;11.01;43.62;98699.56;5091813;28;20055;-59
2022/04/24 03:25:04;;;;;;;3.42;2.80;;;;;;;10.99;43.57;98698.81;5092994;28;20090;-59
2022/04/24 03:27:30;;;;;;;3.47;2.80;;;;;;;10.98;43.60;98699.78;5091694;28;20052;-59
2022/04/24 03:29:57;;;;;;;3.67;2.95;;;;;;;10.96;43.68;98699.09;5092716;28;20488;-59
2022/04/24 03:32:24;;;;;;;3.50;2.67;;;;;;;10.94;43.72;98703.59;5092872;28;20061;-60
2022/04/24 03:34:51;;;;;;;4.18;2.97;;;;;;;10.93;43.69;98704.56;5093029;28;20505;-59
2022/04/24 03:37:18;;;;;;;3.60;2.92;;;;;;;10.91;43.59;98690.66;5093195;28;20048;-62
2022/04/24 03:39:45;;;;;;;8.85;2.97;;;;;;;10.89;43.62;98700.50;5092628;28;20048;-59
2022/04/24 03:42:12;;;;;;;7.60;3.28;;;;;;;10.86;43.76;98705.97;5092582;28;20044;-61
2022/04/24 03:44:39;;;;;;;5.07;2.95;;;;;;;10.84;43.79;98706.09;5092704;28;20056;-59
2022/04/24 03:47:06;;;;;;;7.57;3.40;;;;;;;10.80;43.72;98708.13;5093078;28;20048;-60
2022/04/24 03:49:33;;;;;;;4.13;2.85;;;;;;;10.79;43.85;98705.59;5092567;28;20461;-59
2022/04/24 03:52:00;;;;;;;6.10;3.25;;;;;;;10.77;43.61;98710.16;5092237;28;20051;-61
2022/04/24 03:54:26;;;;;;;4.85;2.97;;;;;;;10.74;43.75;98713.00;5092095;28;20052;-60
2022/04/24 03:56:53;;;;;;;5.65;3.03;;;;;;;10.71;43.75;98710.59;5092318;28;20386;-60
2022/04/24 03:59:19;;;;;;;10.68;3.00;;;;;;;10.67;43.98;98704.72;5092089;28;20458;-59
2022/04/24 04:01:47;;;;;;;3.63;2.75;;;;;;;10.65;43.98;98706.66;5091825;28;20048;-63
2022/04/24 04:04:14;;;;;;;5.15;2.72;;;;;;;10.62;43.92;98710.31;5092671;28;20048;-59
2022/04/24 04:06:40;;;;;;;6.93;2.88;;;;;;;10.59;43.94;98700.06;5092466;28;20044;-59
2022/04/24 04:09:07;;;;;;;4.70;2.70;;;;;;;10.58;43.98;98708.06;5092231;28;20113;-60
2022/04/24 04:11:33;;;;;;;9.68;3.13;;;;;;;10.57;43.92;98707.19;5092000;28;20156;-59
2022/04/24 04:14:00;;;;;;;4.22;2.67;;;;;;;10.54;44.08;98710.91;5091512;28;20044;-59
2022/04/24 04:16:26;;;;;;;6.05;2.92;;;;;;;10.51;43.94;98711.13;5092014;28;20570;-61
2022/04/24 04:18:54;;;;;;;3.92;2.80;;;;;;;10.48;44.12;98711.38;5092270;28;20059;-60
2022/04/24 04:21:20;;;;;;;6.97;2.88;;;;;;;10.44;44.01;98712.53;5091874;28;20059;-61
2022/04/24 04:23:47;;;;;;;4.28;2.78;;;;;;;10.42;44.19;98710.00;5092143;28;20052;-59
2022/04/24 04:26:17;;;;;;;7.55;3.00;;;;;;;10.40;44.29;98709.25;5092036;28;20484;-60
2022/04/24 04:28:46;;;;;;;4.90;2.92;;;;;;;10.38;44.72;98715.56;5092169;28;20051;-59
2022/04/24 04:31:14;;;;;;;3.95;2.78;;;;;;;10.37;44.45;98719.16;5091887;28;20113;-61
2022/04/24 04:33:41;;;;;;;2.80;2.45;;;;;;;10.36;44.12;98720.13;5091926;28;20052;-62
2022/04/24 04:36:08;;;;;;;4.40;2.78;;;;;;;10.33;44.38;98723.81;5091780;28;20504;-60
2022/04/24 04:38:35;;;;;;;3.97;2.90;;;;;;;10.31;44.37;98723.06;5091596;28;20056;-59
2022/04/24 04:41:02;;;;;;;4.85;2.80;;;;;;;10.28;44.36;98724.16;5091444;28;20044;-59
2022/04/24 04:43:29;;;;;;;7.85;2.72;;;;;;;10.26;44.69;98723.44;5091453;28;20412;-60
2022/04/24 04:45:56;;;;;;;5.05;2.88;;;;;;;10.26;44.69;98723.44;5091687;28;20058;-60
2022/04/24 04:48:23;;;;;;;4.13;2.75;;;;;;;10.24;44.85;98719.22;5091474;28;20113;-59
2022/04/24 04:50:49;;;;;;;4.75;3.17;;;;;;;10.24;44.93;98727.13;5091437;28;20047;-59
2022/04/24 04:53:16;;;;;;;3.55;2.70;;;;;;;10.23;44.92;98723.66;5091307;28;20109;-60
2022/04/24 04:55:43;;;;;;;3.30;2.70;;;;;;;10.23;44.72;98722.78;5091340;28;20395;-60
2022/04/24 04:58:09;;;;;;;3.17;2.70;;;;;;;10.23;44.88;98728.06;5091252;28;20048;-60
2022/04/24 05:00:36;;;;;;;4.05;2.88;;;;;;;10.23;44.83;98728.91;5091042;28;20463;-59
2022/04/24 05:03:03;;;;;;;3.60;2.80;;;;;;;10.22;45.05;98735.13;5091301;28;20251;-59
2022/04/24 05:05:30;;;;;;;8.02;3.13;;;;;;;10.23;44.95;98738.56;5091105;28;20044;-61
2022/04/24 05:07:57;;;;;;;5.88;2.72;;;;;;;10.23;45.07;98728.06;5091065;28;20048;-60
2022/04/24 05:10:23;;;;;;;11.00;3.17;;;;;;;10.22;44.93;98737.75;5090848;28;20290;-60
2022/04/24 05:12:50;;;;;;;5.38;2.75;;;;;;;10.23;45.06;98738.56;5090718;28;20408;-62
2022/04/24 05:15:17;;;;;;;9.00;3.00;;;;;;;10.23;45.00;98738.56;5091170;28;20056;-59
2022/04/24 05:17:44;;;;;;;5.28;2.45;;;;;;;10.22;45.32;98734.25;5090040;28;20105;-59
2022/04/24 05:20:11;;;;;;;4.50;2.80;;;;;;;10.22;45.20;98745.63;5089467;28;20052;-60
2022/04/24 05:22:40;;;;;;;7.55;2.90;;;;;;;10.21;45.36;98741.31;5090405;28;20399;-59
2022/04/24 05:25:09;;;;;;;4.68;2.50;;;;;;;10.22;45.44;98743.00;5088686;28;20052;-60
2022/04/24 05:27:39;;;;;;;3.13;2.63;;;;;;;10.23;45.99;98742.06;5090769;28;20492;-63
2022/04/24 05:30:07;;;;;;;4.88;2.50;;;;;;;10.25;45.65;98742.75;5090800;28;20121;-59
2022/04/24 05:32:39;;;;;;;6.07;2.72;;;;;;;10.25;46.11;98745.41;5090797;28;20052;-60
2022/04/24 05:35:06;;;;;;;6.80;2.88;;;;;;;10.28;45.56;98745.19;5090886;28;20052;-59
2022/04/24 05:37:33;;;;;;;4.63;2.92;;;;;;;10.29;45.57;98743.41;5089149;28;20054;-59
2022/04/24 05:40:00;;;;;;;7.82;3.00;;;;;;;10.30;45.68;98740.66;5089070;28;20500;-62
2022/04/24 05:42:27;;;;;;;3.38;2.92;;;;;;;10.30;45.61;98740.66;5090497;28;20060;-60
2022/04/24 05:44:58;;;;;;;3.45;2.75;;;;;;;10.32;46.14;98737.91;5090684;28;20051;-60
2022/04/24 05:47:24;;;;;;;9.75;3.08;;;;;;;10.36;45.69;98742.00;5090525;28;20051;-61
2022/04/24 05:49:51;;;;;;;6.75;2.72;;;;;;;10.38;45.77;98750.63;5089601;28;20052;-59
2022/04/24 05:52:17;;;;;;;31.67;3.38;;;;;;;10.40;45.83;98745.25;5090901;28;20524;-61
2022/04/24 05:54:44;;;;;;;7.03;3.20;;;;;;;10.42;45.84;98749.44;5089430;28;20048;-59
2022/04/24 05:57:10;;;;;;;19.90;3.42;;;;;;;10.45;45.95;98744.94;5090530;28;20056;-62
2022/04/24 05:59:37;;;;;;;6.22;2.78;;;;;;;10.46;45.92;98750.09;5090375;28;20565;-60
2022/04/24 06:02:04;;;;;;;7.45;2.88;;;;;;;10.48;45.77;98753.47;5090323;28;20055;-61
2022/04/24 06:04:30;;;;;;;23.63;3.33;;;;;;;10.51;45.85;98747.13;5090360;28;20093;-62
2022/04/24 06:06:57;;;;;;;5.95;3.25;;;;;;;10.52;46.11;98752.28;5089714;28;20462;-60
2022/04/24 06:09:23;;;;;;;5.03;3.00;;;;;;;10.52;46.13;98752.28;5090382;28;20048;-62
2022/04/24 06:11:58;;;;;;;3.90;2.80;;;;;;;10.55;46.09;98756.50;5090548;28;20054;-61
2022/04/24 06:14:26;;;;;;;3.78;2.92;;;;;;;10.57;46.26;98759.00;5090450;28;20097;-63
2022/04/24 06:16:53;;;;;;;5.95;2.95;;;;;;;10.59;46.24;98759.72;5090420;28;20052;-60
2022/04/24 06:19:20;;;;;;;7.15;2.95;;;;;;;10.62;46.24;98754.25;5090185;28;20044;-60
2022/04/24 06:21:46;;;;;;;6.18;2.90;;;;;;;10.65;46.36;98764.56;5090321;28;20048;-59
2022/04/24 06:24:15;;;;;;;5.18;3.08;;;;;;;10.68;46.26;98759.03;5090222;28;20487;-60
2022/04/24 06:26:44;;;;;;;3.70;2.65;;;;;;;10.73;46.22;98762.16;5090122;28;20048;-61
2022/04/24 06:29:12;;;;;;;7.88;3.20;;;;;;;10.78;46.36;98761.84;5089960;28;20465;-62
2022/04/24 06:31:39;;;;;;;4.90;2.70;;;;;;;10.84;46.39;98763.19;5088895;28;20048;-59
2022/04/24 06:34:06;;;;;;;5.10;3.35;;;;;;;10.89;46.16;98761.03;5090083;28;20088;-68
2022/04/24 06:36:33;;;;;;;4.32;2.80;;;;;;;10.95;46.21;98763.22;5090939;28;20048;-59
2022/04/24 06:39:02;;;;;;;6.35;2.60;;;;;;;11.00;46.41;98761.09;5093941;28;20060;-62
2022/04/24 06:41:29;;;;;;;4.55;2.70;;;;;;;11.03;46.20;98755.56;5093704;28;20056;-59
2022/04/24 06:43:56;;;;;;;5.05;3.00;;;;;;;11.09;46.24;98749.00;5094445;28;20059;-61
2022/04/24 06:46:25;;;;;;;3.20;2.63;;;;;;;11.15;46.27;98760.88;5093738;28;20055;-59
2022/04/24 06:48:52;;;;;;;4.53;2.97;;;;;;;11.20;46.08;98753.47;5092636;28;20447;-60
2022/04/24 06:51:19;;;;;;;3.50;2.35;;;;;;;11.23;46.20;98753.25;5093427;28;20048;-60
2022/04/24 06:53:46;;;;;;;3.15;2.50;;;;;;;11.29;46.00;98758.03;5093460;28;20143;-60
2022/04/24 06:56:12;;;;;;;5.43;2.80;;;;;;;11.33;45.96;98767.38;5093590;28;20052;-60
2022/04/24 06:58:39;;;;;;;3.30;2.97;;;;;;;11.38;45.99;98760.91;5093751;28;20052;-60
2022/04/24 07:01:12;;;;;;;3.92;2.72;;;;;;;11.45;45.91;98762.13;5093626;28;20044;-61
2022/04/24 07:03:39;;;;;;;3.88;2.63;;;;;;;11.48;45.93;98754.00;5093777;28;20048;-59
2022/04/24 07:06:07;;;;;;;6.97;2.67;;;;;;;11.55;45.92;98754.38;5093618;28;20138;-60
2022/04/24 07:08:34;;;;;;;5.10;2.92;;;;;;;11.59;46.01;98754.00;5092052;28;20504;-60
2022/04/24 07:11:01;;;;;;;3.65;2.92;;;;;;;11.66;45.81;98754.34;5093166;28;20044;-60
2022/04/24 07:13:28;;;;;;;4.15;3.20;;;;;;;11.70;45.67;98753.16;5092984;28;20562;-62
2022/04/24 07:15:54;;;;;;;3.85;2.85;;;;;;;11.76;45.77;98753.63;5093442;28;20101;-61
2022/04/24 07:18:22;;;;;;;5.75;2.97;;;;;;;11.82;45.74;98761.91;5093326;28;20051;-60
2022/04/24 07:20:49;;;;;;;5.78;2.75;;;;;;;11.88;45.71;98765.84;5093210;28;20048;-62
2022/04/24 07:23:16;;;;;;;5.15;2.88;;;;;;;11.93;45.50;98761.06;5091844;28;20139;-59
2022/04/24 07:25:46;;;;;;;3.83;2.85;;;;;;;11.98;45.67;98764.19;5093027;28;20195;-60
2022/04/24 07:28:14;;;;;;;4.13;2.92;;;;;;;12.03;45.55;98763.81;5093070;28;20052;-60
2022/04/24 07:30:41;;;;;;;4.40;3.00;;;;;;;12.06;45.59;98763.59;5091576;28;20052;-60
2022/04/24 07:33:08;;;;;;;4.53;2.85;;;;;;;12.10;45.71;98767.69;5092896;28;20129;-60
2022/04/24 07:35:37;;;;;;;3.60;3.03;;;;;;;12.16;45.53;98768.16;5092793;28;20489;-62
2022/04/24 07:38:04;;;;;;;6.35;3.15;;;;;;;12.21;45.36;98779.16;5092544;28;20079;-60
2022/04/24 07:40:32;;;;;;;4.32;3.20;;;;;;;12.26;45.59;98769.06;5092346;28;20056;-61
2022/04/24 07:43:01;;;;;;;4.68;2.88;;;;;;;12.30;45.69;98775.78;5092593;28;20056;-60
2022/04/24 07:45:39;;;;;;;3.42;2.90;;;;;;;12.34;45.87;98769.31;5092800;28;20056;-59
2022/04/24 07:48:17;;;;;;;4.82;3.35;;;;;;;12.44;45.74;98776.47;5090506;28;20378;-59
2022/04/24 07:50:46;;;;;;;4.03;3.00;;;;;;;12.50;45.74;98770.72;5092275;28;20058;-61
2022/04/24 07:53:13;;;;;;;3.65;3.15;;;;;;;12.57;45.58;98766.63;5092425;28;20500;-59
2022/04/24 07:55:42;;;;;;;3.75;2.90;;;;;;;12.64;45.56;98765.13;5092680;28;20052;-60
2022/04/24 07:58:09;;;;;;;3.70;3.00;;;;;;;12.72;45.64;98756.63;5092572;28;20063;-59
2022/04/24 08:00:36;;;;;;;3.08;2.78;;;;;;;12.80;45.39;98763.03;5092684;28;20412;-63
2022/04/24 08:03:04;;;;;;;3.97;2.70;;;;;;;12.88;45.42;98768.53;5092637;28;20044;-59
2022/04/24 08:05:34;;;;;;;3.83;3.22;;;;;;;12.97;45.28;98764.31;5090714;28;20431;-60
2022/04/24 08:08:03;;;;;;;3.53;3.00;;;;;;;13.04;45.25;98760.16;5092285;28;20071;-59
2022/04/24 08:10:33;;;;;;;3.97;2.78;;;;;;;13.13;45.43;98762.03;5092216;28;20088;-60
2022/04/24 08:13:04;;;;;;;3.72;2.97;;;;;;;13.22;45.78;98759.59;5091149;28;20052;-61
2022/04/24 08:15:34;;;;;;;5.93;3.35;;;;;;;13.29;45.45;98756.31;5090876;28;20071;-60
2022/04/24 08:18:02;;;;;;;3.50;2.97;;;;;;;13.40;45.33;98759.84;5090722;28;20056;-60
2022/04/24 08:20:30;;;;;;;6.43;3.17;;;;;;;13.49;45.13;98752.97;5092180;28;20054;-60
2022/04/24 08:22:59;;;;;;;6.10;2.90;;;;;;;13.59;45.22;98758.28;5091830;28;20044;-60
2022/04/24 08:25:26;;;;;;;6.07;2.85;;;;;;;13.68;45.16;98761.00;5090923;28;20052;-62
2022/04/24 08:27:56;;;;;;;10.20;3.50;;;;;;;13.78;45.12;98757.53;5091726;28;20043;-60
2022/04/24 08:30:23;;;;;;;7.03;2.90;;;;;;;13.87;44.87;98755.91;5090442;28;20539;-60
2022/04/24 08:32:51;;;;;;;3.03;2.63;;;;;;;13.97;44.71;98763.91;5092085;28;20114;-61
2022/04/24 08:35:19;;;;;;;6.18;3.17;;;;;;;14.04;45.29;98762.38;5090661;28;20048;-59
2022/04/24 08:37:47;;;;;;;4.93;3.22;;;;;;;14.14;44.82;98762.41;5091817;28;20051;-59
2022/04/24 08:40:16;;;;;;;3.67;3.17;;;;;;;14.23;44.59;98756.28;5091617;28;20044;-59
2022/04/24 08:42:43;;;;;;;3.45;2.97;;;;;;;14.31;44.47;98758.25;5090341;28;20077;-61
2022/04/24 08:45:14;;;;;;;2.90;2.60;;;;;;;14.39;44.65;98762.88;5090141;28;20510;-60
2022/04/24 08:47:42;;;;;;;4.85;3.30;;;;;;;14.48;44.16;98763.84;5091689;28;20458;-61
2022/04/24 08:50:10;;;;;;;4.68;3.10;;;;;;;14.55;44.24;98767.63;5091201;28;20048;-60
2022/04/24 08:52:41;;;;;;;4.00;3.20;;;;;;;14.62;43.98;98746.75;5091224;28;20052;-60
2022/04/24 08:55:08;;;;;;;5.63;3.10;;;;;;;14.70;44.16;98747.69;5090237;28;20048;-60
2022/04/24 08:57:35;;;;;;;6.00;3.47;;;;;;;14.78;44.16;98749.69;5089990;28;20052;-60
2022/04/24 09:00:04;;;;;;;3.80;3.15;;;;;;;14.88;44.35;98752.31;5091527;28;20044;-60
2022/04/24 09:02:50;;;;;;;4.28;3.28;;;;;;;15.01;44.24;98764.47;5091232;28;20044;-60
2022/04/24 09:05:17;;;;;;;5.20;3.08;;;;;;;15.12;43.91;98761.66;5089765;28;20488;-60
2022/04/24 09:07:45;;;;;;;4.07;2.95;;;;;;;15.21;44.07;98766.13;5090908;28;20055;-60
2022/04/24 09:10:32;;;;;;;5.35;3.15;;;;;;;15.34;44.13;98757.03;5090791;28;20044;-59
2022/04/24 09:13:03;;;;;;;4.60;3.10;;;;;;;15.44;44.08;98760.47;5089628;28;20059;-60
2022/04/24 09:15:33;;;;;;;4.50;3.08;;;;;;;15.54;44.01;98755.16;5091152;28;20059;-60
2022/04/24 09:18:00;;;;;;;5.45;3.35;;;;;;;15.65;43.65;98756.78;5091024;28;20048;-61
2022/04/24 09:20:41;;;;;;;5.10;3.40;;;;;;;15.77;43.71;98752.97;5090797;28;20048;-63
2022/04/24 09:23:08;;;;;;;6.18;3.25;;;;;;;15.90;43.87;98749.97;5089709;28;20051;-60
2022/04/24 09:25:41;;;;;;;3.63;3.05;;;;;;;16.00;43.08;98749.97;5091127;28;20093;-61
2022/04/24 09:28:07;;;;;;;4.47;3.10;;;;;;;16.13;43.33;98751.44;5090711;28;20052;-60
2022/04/24 09:30:36;;;;;;;5.20;3.45;;;;;;;16.26;43.12;98761.72;5090807;28;20413;-60
2022/04/24 09:33:06;;;;;;;4.05;3.15;;;;;;;16.35;42.92;98762.63;5089240;28;20052;-63
2022/04/24 09:35:36;;;;;;;4.53;3.03;;;;;;;16.46;42.46;98746.50;5089740;28;20105;-59
2022/04/24 09:38:14;;;;;;;4.63;3.22;;;;;;;16.53;42.12;98760.00;5090848;28;20052;-62
2022/04/24 09:40:44;;;;;;;5.50;3.22;;;;;;;16.64;42.39;98758.94;5090651;28;20055;-59
2022/04/24 09:43:12;;;;;;;4.43;2.88;;;;;;;16.72;41.99;98752.84;5090602;28;20075;-61
2022/04/24 09:45:41;;;;;;;5.97;3.20;;;;;;;16.80;41.83;98763.56;5090526;28;20055;-59
2022/04/24 09:48:20;;;;;;;4.45;2.90;;;;;;;16.88;41.75;98757.47;5089618;28;20109;-62
2022/04/24 09:50:49;;;;;;;3.60;3.00;;;;;;;16.95;41.83;98750.56;5090544;28;20062;-60
2022/04/24 09:53:19;;;;;;;4.13;3.00;;;;;;;17.03;42.26;98753.28;5090266;28;20044;-60
2022/04/24 09:55:48;;;;;;;5.45;2.90;;;;;;;17.13;41.89;98752.41;5090521;28;20125;-60
2022/04/24 09:58:16;;;;;;;7.70;3.10;;;;;;;17.22;42.25;98758.59;5089277;28;20056;-59
2022/04/24 10:00:44;;;;;;;5.47;2.92;;;;;;;17.32;41.42;98760.16;5089161;28;20487;-60
2022/04/24 10:03:17;;;;;;;6.00;3.13;;;;;;;17.40;40.87;98766.53;5090361;28;20048;-60
2022/04/24 10:05:47;;;;;;;12.25;2.90;;;;;;;17.52;40.71;98761.78;5089384;28;20055;-60
2022/04/24 10:08:16;;;;;;;4.07;3.15;;;;;;;17.61;41.27;98763.53;5090334;28;20060;-59
2022/04/24 10:10:50;;;;;;;7.85;2.97;;;;;;;17.74;41.36;98757.75;5090587;28;20080;-60
2022/04/24 10:13:20;;;;;;;3.55;3.03;;;;;;;17.87;41.05;98759.97;5094208;28;20540;-61
2022/04/24 10:15:53;;;;;;;4.25;2.72;;;;;;;18.01;40.89;98758.53;5094696;28;20051;-61
2022/04/24 10:18:22;;;;;;;5.03;2.70;;;;;;;18.17;40.13;98764.94;5093186;28;20055;-60
2022/04/24 10:21:10;;;;;;;3.63;2.70;;;;;;;18.32;40.12;98755.31;5094068;28;20055;-60
2022/04/24 10:23:37;;;;;;;4.40;2.80;;;;;;;18.48;39.80;98753.69;5094466;28;20044;-61
2022/04/24 10:26:19;;;;;;;6.13;3.20;;;;;;;18.55;39.72;98760.06;5094126;28;20052;-60
2022/04/24 10:28:48;;;;;;;3.70;2.92;;;;;;;18.68;39.95;98758.72;5093991;28;20097;-60
2022/04/24 10:31:16;;;;;;;4.63;3.05;;;;;;;18.77;39.50;98759.56;5092628;28;20047;-60
2022/04/24 10:33:55;;;;;;;4.20;2.85;;;;;;;18.86;39.64;98756.75;5093903;28;20048;-63
2022/04/24 10:36:23;;;;;;;7.82;2.60;;;;;;;19.03;39.47;98756.75;5094091;28;20044;-59
2022/04/24 10:38:53;;;;;;;3.80;2.88;;;;;;;19.15;38.61;98759.94;5093956;28;20492;-60
2022/04/24 10:41:39;;;;;;;5.00;3.08;;;;;;;19.30;39.44;98752.09;5093684;28;20052;-60
2022/04/24 10:44:15;;;;;;;8.40;3.28;;;;;;;19.40;38.63;98750.06;5093945;28;20048;-59
2022/04/24 10:46:42;;;;;;;4.30;2.97;;;;;;;19.56;38.82;98750.19;5094000;28;20083;-60
2022/04/24 10:49:16;;;;;;;3.47;2.90;;;;;;;19.70;39.07;98745.97;5093493;28;20677;-61
2022/04/24 10:51:46;;;;;;;6.90;2.78;;;;;;;19.95;39.19;98744.03;5093578;28;20468;-60
2022/04/24 10:54:14;;;;;;;7.88;3.15;;;;;;;20.20;38.79;98738.63;5093232;28;20484;-60
2022/04/24 10:56:43;;;;;;;3.83;2.47;;;;;;;20.51;37.98;98752.94;5093780;28;20048;-59
2022/04/24 10:59:16;;;;;;;6.18;2.65;;;;;;;20.77;36.92;98749.94;5093840;28;20075;-62
2022/04/24 11:01:54;;;;;;;4.40;2.92;;;;;;;21.03;36.76;98750.59;5093394;28;20470;-61
2022/04/24 11:04:23;;;;;;;3.15;2.60;;;;;;;21.26;36.71;98747.88;5093042;28;20087;-60
2022/04/24 11:06:56;;;;;;;6.05;2.50;;;;;;;21.43;36.21;98745.88;5093204;28;20048;-62
2022/04/24 11:09:28;;;;;;;4.10;2.88;;;;;;;21.69;36.66;98741.06;5092213;28;20048;-61
2022/04/24 11:12:07;;;;;;;2.63;2.42;;;;;;;21.97;35.78;98737.75;5093687;28;20051;-61
2022/04/24 11:14:35;;;;;;;4.95;2.58;;;;;;;22.28;35.73;98734.00;5092265;28;20097;-63
2022/04/24 11:17:05;;;;;;;3.22;2.22;;;;;;;22.49;34.95;98738.53;5091936;28;20493;-60
2022/04/24 11:19:36;;;;;;;2.92;2.35;;;;;;;22.64;33.93;98738.53;5091933;28;20126;-61
2022/04/24 11:22:04;;;;;;;4.53;2.00;;;;;;;22.77;33.95;98735.13;5092054;28;20110;-61
2022/04/24 11:24:33;;;;;;;4.63;2.47;;;;;;;22.86;33.30;98740.34;5093213;28;20109;-62
2022/04/24 11:27:12;;;;;;;6.63;2.38;;;;;;;22.91;32.64;98737.91;5092921;28;20105;-63
2022/04/24 11:29:42;;;;;;;5.13;2.47;;;;;;;23.02;33.31;98742.75;5092801;28;20044;-60
2022/04/24 11:32:09;;;;;;;3.00;2.35;;;;;;;23.14;33.41;98732.31;5093178;28;20097;-60
2022/04/24 11:34:37;;;;;;;2.60;2.40;;;;;;;23.24;33.76;98745.41;5092757;28;20629;-62
2022/04/24 11:37:04;;;;;;;6.57;3.28;;;;;;;23.39;33.71;98734.59;5092952;28;20052;-62
2022/04/24 11:39:32;;;;;;;4.15;2.42;;;;;;;23.57;33.00;98725.19;5092754;28;20048;-59